Latest Weather Observations for King Island Airport

IDT60801

Issued at 3:02 pm EST Thursday 27 July 2017 (issued every 30 minutes, with the page automatically refreshed every 10 minutes)

About weather observations | Map of weather stations | Latest weather observations for TAS | Other Formats
Station Details ID: 098017 Name: KING ISLAND AIRPORT Lat: -39.88 Lon: 143.88 Height: 37.0 m
Data from the previous 72 hours. | See also: Recent months at King Island Airport
Date/Time
EST
Temp
°C
App
Temp
°C
Dew
Point
°C
Rel
Hum
%
Delta-T
°C
Wind Press
QNH
hPa
Press
MSL
hPa
Rain since
9am
mm
Dir  Spd
km/h
Gust
km/h
Spd
kts
Gust
kts
27/03:00pm 12.8 5.7 8.1 73 2.3 N 35 50 19 27 1012.7 1012.7 0.0
27/02:30pm 12.7 5.6 8.2 74 2.2 N 35 48 19 26 1012.9 1012.9 0.0
27/02:10pm 13.1 6.6 8.0 71 2.5 N 32 52 17 28 1012.8 1012.8 0.0
27/02:00pm 12.3 5.0 7.4 72 2.4 N 35 48 19 26 1012.9 1012.9 0.0
27/01:30pm 12.5 6.2 7.6 72 2.4 N 30 39 16 21 1013.3 1013.3 0.0
27/01:00pm 11.9 5.5 8.6 80 1.6 N 32 39 17 21 1013.8 1013.8 0.0
27/12:30pm 11.9 5.3 7.6 75 2.1 N 32 41 17 22 1015.0 1015.0 0.0
27/12:00pm 12.3 5.9 8.4 77 1.9 N 32 39 17 21 1016.1 1016.1 0.0
27/11:30am 12.2 5.1 8.1 76 2.0 N 35 48 19 26 1017.0 1017.0 0.0
27/11:00am 12.8 6.4 8.5 75 2.1 N 32 39 17 21 1017.3 1017.3 0.0
27/10:30am 12.0 5.3 8.3 78 1.8 N 33 43 18 23 1018.1 1018.1 0.0
27/10:00am 11.7 5.6 8.2 79 1.7 N 30 39 16 21 1018.4 1018.4 0.0
27/09:30am 11.3 5.1 7.8 79 1.7 N 30 39 16 21 1018.5 1018.5 0.0
27/09:00am 11.0 4.3 7.5 79 1.7 N 32 39 17 21 1018.8 1018.8 0.8
27/08:30am 10.6 5.2 8.0 84 1.3 N 26 33 14 18 1018.7 1018.7 0.8
27/08:00am 10.5 4.6 7.7 83 1.3 N 28 39 15 21 1019.0 1019.0 0.8
27/07:30am 10.3 4.3 7.2 81 1.5 NNW 28 35 15 19 1019.2 1019.2 0.8
27/07:00am 10.4 4.1 7.5 82 1.4 NNW 30 39 16 21 1019.0 1019.0 0.8
27/06:30am 10.4 4.7 8.2 86 1.1 NNW 28 35 15 19 1019.3 1019.3 0.8
27/06:00am 9.8 7.1 9.0 95 0.4 NNE 13 28 7 15 1019.1 1019.1 0.8
27/05:30am 6.8 4.4 5.4 91 0.6 ENE 7 9 4 5 1019.7 1019.7 0.4
27/05:00am 6.1 3.6 4.7 91 0.6 E 7 9 4 5 1019.6 1019.6 0.4
27/04:30am 5.7 2.8 4.7 93 0.4 E 9 11 5 6 1019.8 1019.8 0.4
27/04:00am 5.9 3.4 4.9 93 0.4 ESE 7 9 4 5 1020.3 1020.3 0.4
27/03:30am 5.5 2.6 4.5 93 0.4 ESE 9 11 5 6 1020.2 1020.2 0.4
27/03:00am 5.3 2.4 4.6 95 0.3 E 9 9 5 5 1020.5 1020.5 0.4
27/02:30am 5.1 2.1 4.2 94 0.4 E 9 9 5 5 1020.8 1020.8 0.4
27/02:00am 5.7 2.7 3.9 88 0.8 ESE 9 11 5 6 1021.0 1021.0 0.4
27/01:30am 7.6 5.2 5.2 85 1.1 ENE 7 11 4 6 1021.3 1021.3 0.4
27/01:00am 5.9 3.4 4.7 92 0.5 ENE 7 9 4 5 1021.7 1021.7 0.4
27/12:30am 5.2 2.6 4.0 92 0.5 ESE 7 9 4 5 1021.9 1021.9 0.4
27/12:00am 5.1 2.0 3.6 90 0.6 E 9 13 5 7 1022.2 1022.2 0.4
 
Date/Time
EST
Temp
°C
App
Temp
°C
Dew
Point
°C
Rel
Hum
%
Delta-T
°C
Wind Press
QNH
hPa
Press
MSL
hPa
Rain since
9am
mm
Dir  Spd
km/h
Gust
km/h
Spd
kts
Gust
kts
26/11:30pm 5.7 4.4 4.0 89 0.7 CALM 0 0 0 0 1022.4 1022.4 0.4
26/11:00pm 5.7 4.3 3.7 87 0.8 CALM 0 0 0 0 1022.2 1022.2 0.4
26/10:30pm 5.7 4.3 3.5 86 0.9 CALM 0 0 0 0 1022.1 1022.1 0.4
26/10:00pm 7.8 5.4 4.4 79 1.5 SSW 6 7 3 4 1022.1 1022.1 0.4
26/09:30pm 8.6 5.6 4.0 73 2.0 SW 9 11 5 6 1021.9 1021.9 0.4
26/09:00pm 8.7 4.8 3.3 69 2.3 SW 13 15 7 8 1021.9 1021.9 0.4
26/08:30pm 8.9 4.6 3.5 69 2.3 SW 15 17 8 9 1021.7 1021.7 0.4
26/08:00pm 9.0 5.3 4.4 73 2.0 WSW 13 17 7 9 1021.8 1021.8 0.4
26/07:30pm 9.1 5.3 3.9 70 2.3 SW 13 20 7 11 1021.4 1021.4 0.4
26/07:00pm 9.6 5.6 4.8 72 2.1 SW 15 20 8 11 1021.3 1021.3 0.4
26/06:30pm 10.0 5.0 3.7 65 2.8 WSW 19 26 10 14 1020.9 1020.9 0.4
26/06:00pm 9.9 5.0 4.9 71 2.2 SW 20 28 11 15 1020.6 1020.6 0.4
26/05:30pm 10.1 4.7 4.3 67 2.6 WSW 22 32 12 17 1020.3 1020.3 0.4
26/05:00pm 10.1 4.7 4.5 68 2.5 SW 22 32 12 17 1020.0 1020.0 0.4
26/04:30pm 11.1 4.5 4.3 63 3.1 WSW 28 39 15 21 1019.7 1019.7 0.4
26/04:00pm 11.3 4.8 4.5 63 3.1 WSW 28 37 15 20 1019.5 1019.5 0.4
26/03:30pm 11.6 4.6 4.3 61 3.3 SW 30 37 16 20 1019.3 1019.3 0.4
26/03:00pm 11.7 4.2 4.4 61 3.3 WSW 33 46 18 25 1018.9 1018.9 0.4
26/02:30pm 11.8 4.6 5.2 64 3.0 SW 32 43 17 23 1018.6 1018.6 0.4
26/02:00pm 12.1 4.9 5.7 65 3.0 SW 33 44 18 24 1018.4 1018.4 0.4
26/01:30pm 12.0 5.0 6.1 67 2.8 SW 32 43 17 23 1018.0 1018.0 0.4
26/01:00pm 11.9 5.9 7.0 72 2.3 SW 28 46 15 25 1017.9 1017.9 0.4
26/12:59pm 11.8 5.8 7.1 73 2.3 SW 28 46 15 25 1017.9 1017.9 0.4
26/12:30pm 11.0 3.2 4.9 66 2.8 SW 35 48 19 26 1017.8 1017.8 0.4
26/12:00pm 11.3 3.9 5.0 65 2.9 SW 33 48 18 26 1017.6 1017.6 0.4
26/11:30am 11.8 3.9 6.3 69 2.6 SW 37 50 20 27 1017.4 1017.4 0.4
26/11:00am 11.8 4.9 6.5 70 2.5 SW 32 43 17 23 1017.0 1017.0 0.2
26/10:30am 10.2 2.9 7.1 81 1.5 SW 35 52 19 28 1016.7 1016.7 0.2
26/10:19am 10.5 4.6 7.4 81 1.5 SW 28 48 15 26 1016.6 1016.6 0.2
26/10:00am 10.3 4.6 8.2 87 1.0 SSW 28 35 15 19 1016.1 1016.1 0.2
26/09:45am 10.4 3.6 7.5 82 1.4 SSW 33 52 18 28 1015.9 1015.9 0.0
26/09:30am 10.3 3.0 7.4 82 1.4 SW 35 44 19 24 1015.6 1015.6 0.0
26/09:00am 9.1 1.6 8.0 93 0.5 SW 37 56 20 30 1015.0 1015.0 5.6
26/08:51am 9.2 2.6 7.6 90 0.8 SSW 32 50 17 27 1014.9 1014.9 5.2
26/08:30am 9.9 3.7 8.0 88 0.9 SW 30 41 16 22 1014.1 1014.1 4.4
26/08:19am 9.3 3.3 7.1 86 1.0 SW 28 46 15 25 1013.7 1013.7 4.2
26/08:00am 10.0 4.3 8.3 89 0.8 SSW 28 41 15 22 1013.3 1013.3 3.4
26/07:30am 9.7 3.0 8.1 90 0.8 SSW 33 44 18 24 1012.4 1012.4 3.0
26/07:13am 10.8 4.2 7.9 82 1.4 SW 32 50 17 27 1011.9 1011.9 2.8
26/07:00am 10.7 3.2 7.8 82 1.4 SW 37 50 20 27 1011.7 1011.7 2.8
26/06:30am 10.7 3.5 7.6 81 1.5 SW 35 50 19 27 1010.9 1010.9 2.8
26/06:07am 11.0 3.6 8.2 83 1.4 WSW 37 57 20 31 1010.4 1010.4 2.8
26/06:00am 10.9 3.3 7.4 79 1.7 SW 37 52 20 28 1010.3 1010.3 2.8
26/05:30am 11.2 4.3 8.9 86 1.1 WSW 35 52 19 28 1009.6 1009.7 2.8
26/05:24am 11.0 4.6 9.4 90 0.8 WSW 33 52 18 28 1009.5 1009.6 2.8
26/05:00am 11.3 3.7 7.6 78 1.8 WSW 37 52 20 28 1009.2 1009.3 2.8
26/04:42am 11.3 3.2 7.0 75 2.1 WSW 39 57 21 31 1009.0 1009.1 2.8
26/04:30am 11.1 4.2 8.7 85 1.2 WSW 35 50 19 27 1008.9 1009.0 2.8
26/04:00am 10.6 2.8 8.4 86 1.1 WSW 39 63 21 34 1008.5 1008.6 2.8
26/03:49am 11.7 4.8 8.9 83 1.4 W 35 56 19 30 1008.3 1008.4 2.8
26/03:43am 11.5 4.3 9.1 85 1.2 W 37 50 20 27 1008.4 1008.5 2.8
26/03:32am 10.9 3.6 8.7 86 1.1 W 37 54 20 29 1008.4 1008.5 2.8
26/03:30am 10.9 3.6 8.7 86 1.1 W 37 54 20 29 1008.4 1008.5 2.8
26/03:00am 12.0 5.4 8.5 79 1.7 W 33 52 18 28 1008.4 1008.5 2.8
26/02:33am 11.8 4.0 8.1 78 1.8 W 39 57 21 31 1008.1 1008.2 2.6
26/02:30am 11.8 3.6 8.1 78 1.8 W 41 57 22 31 1008.1 1008.2 2.6
26/02:00am 11.1 3.9 9.0 87 1.0 W 37 54 20 29 1007.9 1008.0 2.6
26/01:30am 11.3 3.1 8.2 81 1.5 W 41 59 22 32 1007.6 1007.7 2.4
26/01:00am 12.0 3.9 8.7 80 1.6 W 41 59 22 32 1007.5 1007.6 2.2
26/12:30am 11.7 2.2 8.2 79 1.7 W 48 69 26 37 1007.4 1007.5 2.2
26/12:06am 10.8 2.0 8.0 83 1.4 W 44 63 24 34 1007.3 1007.4 2.2
26/12:00am 11.0 2.7 9.3 89 0.9 W 43 59 23 32 1007.3 1007.4 2.2
 
Date/Time
EST
Temp
°C
App
Temp
°C
Dew
Point
°C
Rel
Hum
%
Delta-T
°C
Wind Press
QNH
hPa
Press
MSL
hPa
Rain since
9am
mm
Dir  Spd
km/h
Gust
km/h
Spd
kts
Gust
kts
25/11:50pm 10.9 2.6 9.3 90 0.8 W 43 67 23 36 1007.3 1007.4 2.2
25/11:46pm 11.8 3.5 9.2 84 1.3 W 43 63 23 34 1007.3 1007.4 2.0
25/11:33pm 11.5 4.3 10.4 93 0.6 W 39 69 21 37 1007.1 1007.2 2.0
25/11:30pm 11.4 3.1 10.0 91 0.7 W 44 69 24 37 1007.2 1007.3 1.8
25/11:00pm 12.6 4.3 9.2 80 1.7 WNW 43 61 23 33 1007.0 1007.1 1.6
25/10:30pm 12.1 3.7 9.1 82 1.5 WNW 43 61 23 33 1007.1 1007.2 1.6
25/10:00pm 12.6 4.5 8.5 76 2.0 WNW 41 61 22 33 1007.3 1007.4 1.6
25/09:44pm 12.6 3.6 8.7 77 1.9 WNW 46 67 25 36 1007.3 1007.4 1.6
25/09:30pm 12.5 3.1 8.6 77 1.9 WNW 48 63 26 34 1007.5 1007.6 1.6
25/09:16pm 12.2 3.2 8.7 79 1.7 WNW 46 65 25 35 1007.5 1007.6 1.6
25/09:04pm 11.8 4.1 8.8 82 1.5 WNW 39 54 21 29 1007.6 1007.7 1.6
25/09:00pm 11.2 3.4 8.2 82 1.5 WNW 39 52 21 28 1007.7 1007.8 1.6
25/08:46pm 10.8 2.1 8.6 86 1.1 WNW 44 80 24 43 1007.8 1007.9 1.4
25/08:45pm 11.3 2.9 8.9 85 1.2 WNW 43 80 23 43 1007.8 1007.9 1.4
25/08:30pm 12.4 4.3 8.5 77 1.9 WNW 41 54 22 29 1007.7 1007.8 0.8
25/08:00pm 12.8 3.7 8.3 74 2.2 WNW 46 61 25 33 1007.9 1008.0 0.8
25/07:30pm 12.5 3.4 8.4 76 2.0 WNW 46 61 25 33 1007.9 1008.0 0.8
25/07:13pm 12.9 4.5 8.8 76 2.1 WNW 43 61 23 33 1007.9 1008.0 0.8
25/07:00pm 12.7 5.1 9.0 78 1.9 WNW 39 52 21 28 1008.0 1008.1 0.8
25/06:30pm 12.6 4.4 8.3 75 2.1 WNW 41 54 22 29 1008.2 1008.3 0.8
25/06:00pm 11.6 5.2 8.6 82 1.5 WNW 32 39 17 21 1008.1 1008.2 0.8
25/05:30pm 11.4 3.9 9.3 87 1.1 WNW 39 54 21 29 1008.2 1008.3 0.8
25/05:17pm 13.1 6.4 9.7 80 1.7 WNW 35 54 19 29 1008.2 1008.3 0.6
25/05:00pm 12.9 6.2 9.7 81 1.6 NW 35 48 19 26 1008.2 1008.3 0.6
25/04:30pm 12.0 3.8 9.6 85 1.2 NW 43 59 23 32 1008.4 1008.5 0.6
25/04:17pm 13.4 7.0 9.5 77 2.0 WNW 33 52 18 28 1008.3 1008.4 0.6
25/04:00pm 13.2 7.2 10.0 81 1.7 WNW 32 41 17 22 1008.3 1008.4 0.6
25/03:30pm 13.3 7.3 10.8 85 1.3 WNW 33 46 18 25 1008.4 1008.5 0.6
25/03:00pm 14.6 8.7 10.6 77 2.1 WNW 32 43 17 23 1008.4 1008.5 0.6
25/02:30pm 14.2 8.1 9.8 75 2.3 WNW 32 43 17 23 1008.6 1008.7 0.6
25/02:00pm 14.5 8.9 10.1 75 2.3 WNW 30 37 16 20 1008.8 1008.9 0.6
25/01:30pm 14.6 8.9 11.0 79 1.9 WNW 32 39 17 21 1008.9 1009.0 0.6
25/01:00pm 15.3 8.9 11.9 80 1.8 NW 37 46 20 25 1009.4 1009.5 0.6
25/12:30pm 14.3 8.5 11.5 83 1.5 NW 33 41 18 22 1009.7 1009.8 0.6
25/12:00pm 13.4 7.4 10.8 84 1.4 NW 33 46 18 25 1010.4 1010.4 0.6
25/11:30am 13.4 6.8 11.5 88 1.0 NW 37 50 20 27 1011.0 1011.0 0.6
25/11:14am 13.4 7.8 11.5 88 1.0 NW 32 50 17 27 1011.4 1011.4 0.6
25/11:00am 13.6 8.9 12.0 90 0.9 NNW 28 35 15 19 1011.6 1011.6 0.6
25/10:30am 13.3 8.1 11.5 89 1.0 NW 30 39 16 21 1011.7 1011.7 0.6
25/10:00am 13.2 6.5 11.1 87 1.1 WNW 37 44 20 24 1011.8 1011.8 0.6
25/09:30am 12.3 4.2 10.2 87 1.1 NW 43 57 23 31 1011.6 1011.6 0.4
25/09:14am 12.5 5.3 10.4 87 1.1 NW 39 63 21 34 1012.1 1012.1 0.0
25/09:00am 12.2 5.0 10.6 90 0.8 NW 39 52 21 28 1012.1 1012.1 11.8
25/08:30am 11.7 5.3 10.6 93 0.6 NW 35 41 19 22 1012.3 1012.3 11.4
25/08:00am 11.2 5.7 10.4 95 0.4 WNW 30 37 16 20 1012.3 1012.3 10.6
25/07:52am 11.2 6.1 10.6 96 0.3 WNW 28 39 15 21 1012.2 1012.2 10.6
25/07:36am 11.1 5.2 10.3 95 0.4 WNW 32 50 17 27 1012.5 1012.5 10.2
25/07:30am 11.2 5.7 10.4 95 0.4 WNW 30 41 16 22 1012.6 1012.6 9.6
25/07:18am 11.5 6.7 10.4 93 0.6 W 26 39 14 21 1012.5 1012.5 8.2
25/07:00am 11.5 7.0 10.2 92 0.7 WNW 24 35 13 19 1012.6 1012.6 6.8
25/06:30am 10.6 5.7 9.8 95 0.4 WNW 26 35 14 19 1012.0 1012.0 6.8
25/06:27am 10.5 5.2 9.7 95 0.4 WNW 28 39 15 21 1012.1 1012.1 6.8
25/06:07am 10.1 2.4 8.7 91 0.7 WNW 39 57 21 31 1012.2 1012.2 5.8
25/06:00am 10.4 1.8 8.2 86 1.1 NW 43 57 23 31 1012.4 1012.4 3.8
25/05:57am 11.5 3.6 8.0 79 1.7 NW 39 52 21 28 1012.4 1012.4 2.4
25/05:40am 12.8 6.7 10.5 86 1.2 NNW 33 52 18 28 1010.9 1010.9 2.4
25/05:30am 12.8 6.3 10.5 86 1.2 NNW 35 43 19 23 1011.2 1011.2 2.4
25/05:00am 12.7 5.5 10.6 87 1.1 NNW 39 50 21 27 1011.8 1011.8 2.4
25/04:30am 12.4 6.5 10.6 89 0.9 NNW 32 41 17 22 1011.7 1011.7 2.4
25/04:00am 12.4 6.5 10.6 89 0.9 NNW 32 41 17 22 1012.4 1012.4 2.4
25/03:30am 12.3 6.9 11.0 92 0.7 NNW 30 37 16 20 1012.7 1012.7 2.2
25/03:18am 12.3 6.0 11.0 92 0.7 NNW 35 48 19 26 1012.8 1012.8 2.2
25/03:00am 12.4 6.4 10.8 90 0.8 NNW 33 39 18 21 1013.2 1013.2 2.2
25/02:50am 12.3 6.5 10.9 91 0.7 NNW 32 43 17 23 1013.2 1013.2 2.2
25/02:30am 12.2 6.3 10.6 90 0.8 NNW 32 41 17 22 1013.2 1013.2 2.2
25/02:00am 12.7 6.6 10.6 87 1.1 NNW 33 39 18 21 1013.5 1013.5 2.2
25/01:30am 12.3 7.2 10.5 89 0.9 NNW 28 33 15 18 1013.8 1013.8 2.2
25/01:00am 11.8 7.4 10.4 91 0.7 NNW 24 30 13 16 1014.2 1014.2 2.2
25/12:48am 11.6 6.1 10.5 93 0.6 NW 30 37 16 20 1014.4 1014.4 2.2
25/12:38am 11.4 4.4 10.1 92 0.7 NNW 37 56 20 30 1014.6 1014.6 2.2
25/12:31am 11.9 6.8 10.5 91 0.7 NNW 28 52 15 28 1014.5 1014.5 1.8
25/12:30am 12.1 7.4 10.5 90 0.8 NNW 26 37 14 20 1014.5 1014.5 1.6
25/12:00am 12.0 8.2 9.7 86 1.2 NNW 20 28 11 15 1014.9 1014.9 1.6
 
Date/Time
EST
Temp
°C
App
Temp
°C
Dew
Point
°C
Rel
Hum
%
Delta-T
°C
Wind Press
QNH
hPa
Press
MSL
hPa
Rain since
9am
mm
Dir  Spd
km/h
Gust
km/h
Spd
kts
Gust
kts
24/11:30pm 11.5 6.8 9.2 86 1.2 NW 24 30 13 16 1015.2 1015.2 1.6
24/11:00pm 10.9 7.5 9.3 90 0.8 NW 17 19 9 10 1015.5 1015.5 1.6
24/10:30pm 11.2 7.9 9.6 90 0.8 NW 17 24 9 13 1015.8 1015.8 1.6
24/10:00pm 11.4 7.4 9.0 85 1.2 NW 20 26 11 14 1016.2 1016.2 1.6
24/09:30pm 11.0 7.0 9.1 88 0.9 WNW 20 28 11 15 1016.4 1016.4 1.6
24/09:00pm 10.9 6.6 7.8 81 1.5 WNW 20 28 11 15 1016.4 1016.4 1.2
24/08:30pm 11.4 7.1 7.7 78 1.8 WNW 20 28 11 15 1016.4 1016.4 1.2
24/08:00pm 11.4 6.7 7.7 78 1.8 WNW 22 30 12 16 1016.6 1016.6 1.2
24/07:30pm 11.0 6.6 7.5 79 1.7 WNW 20 28 11 15 1016.6 1016.6 1.2
24/07:00pm 11.0 6.6 7.3 78 1.8 W 20 28 11 15 1016.4 1016.4 1.2
24/06:30pm 11.2 6.4 7.3 77 1.9 WNW 22 30 12 16 1016.5 1016.5 1.2
24/06:00pm 11.2 7.3 7.3 77 1.9 WNW 17 24 9 13 1016.3 1016.3 1.2
24/05:30pm 11.0 7.1 7.3 78 1.8 W 17 22 9 12 1016.1 1016.1 1.2
24/05:00pm 11.1 6.8 7.2 77 1.9 WSW 19 30 10 16 1016.1 1016.1 1.2
24/04:30pm 12.0 7.5 7.1 72 2.4 W 20 30 11 16 1016.0 1016.0 1.0
24/04:00pm 11.1 6.7 7.4 78 1.8 W 20 30 11 16 1016.3 1016.3 1.0
24/03:30pm 12.0 7.0 6.5 69 2.6 W 22 32 12 17 1016.2 1016.2 1.0

Other Formats:

Comma delimited format used in spreadsheet applications
http://www.bom.gov.au/fwo/IDT60801/IDT60801.94850.axf

JavaScript Object Notation format (JSON) in row-major order
http://www.bom.gov.au/fwo/IDT60801/IDT60801.94850.json